Airfield :
LOGIN :

Register | Disclaimer

   EN    FR    IT 

 










Legend :    VFR   Marginal VFR   IFR   Intensive IFR   Very Intensive IFR
Visi :
Ceiling :
>= 8 km
>= 3000ft
5 to 8 km
1000 to 3000 ft
1500m to 5 km
500 to 1000 ft
800 to 1500m
200 to 500 ft
< 800m
< 200 ft
Symbols :   Thunderstorms  Fog  Heavy snow  Heavy precipitations  Wind > 20 kt
SIGMETs :     Misc.  Thunderstorms  Icing  Turbulence  Mountain Waves  Volcanic Ashes






- Airport Elevation : 55 ft
- IATA code : DSA


EGCN - Robin Hood Doncaster Sheffield

CURRENT METAR :
  • 231950Z 17004KT 9999 SHRA FEW020 11/09 Q1008

EXPIRED METARs :
  • 231920Z 15006KT CAVOK 11/09 Q1008
  • 231850Z 14006KT CAVOK 11/09 Q1009
  • 231820Z 14006KT 9999 SCT021 11/09 Q1009
  • 231750Z 14006KT CAVOK 11/09 Q1009
  • 231720Z 15005KT CAVOK 11/09 Q1009

TAF TAF EGCN
Valid from the 23 at 18:00 until the 24 at 18:00 UTC


231709Z 2318/2418 19005KT 9999 FEW020
BECMG 2320/2322 8000 BKN014
TEMPO 2320/2405 4000 RADZ BR BKN009
PROB40 2400/2409 1200 BKN004
BECMG 2409/2411 9999 SCT025
TEMPO 2410/2414 5000 RA BKN014



MET'MAP, your aeronautical weather chart ! - Copyright ORBIFLY December 2007 - Disclaimer

ORBIFLY MET'MAP TEAM :

Programming & Development : Alexandra Zaïnal
Concept & Development : Baudouin d'Aumeries
Co-Development & Prog : Marc-Olivier Méhu
Technical & hardware support : Manuel Goepfert

Contact : metmap@orbifly.com




SOURCES & CREDITS :

   NOAA